Time;durP1;ratioP1;P1;durP2;ratioP2;P2;SDS_P1;SDS_P2;PMS_P1;PMS_P2;Temp;Humidity;BMP_temperature;BMP_pressure;BME280_temperature;BME280_humidity;BME280_pressure;Samples;Min_cycle;Max_cycle;Signal;HPM_P1;HPM_P2
2022/04/18 00:00:49;;;;;;;20.08;8.00;;;;;;;4.52;47.07;101668.38;1687931;84;20930;-74
2022/04/18 00:03:33;;;;;;;8.70;4.42;;;;;;;4.46;47.07;101662.69;1658649;84;134550;-74
2022/04/18 00:06:18;;;;;;;10.98;6.12;;;;;;;4.42;47.09;101659.59;1682633;84;20940;-76
2022/04/18 00:09:06;;;;;;;7.05;4.28;;;;;;;4.34;47.11;101657.24;1693510;84;20952;-74
2022/04/18 00:11:50;;;;;;;5.17;4.08;;;;;;;4.25;47.15;101657.00;1691738;84;20967;-74
2022/04/18 00:14:35;;;;;;;16.20;10.85;;;;;;;4.20;47.20;101658.16;1652951;86;21443;-74
2022/04/18 00:17:19;;;;;;;15.50;10.55;;;;;;;4.16;47.20;101655.51;1665922;85;20992;-74
2022/04/18 00:20:05;;;;;;;9.85;7.72;;;;;;;4.11;47.22;101657.95;1677202;85;21103;-74
2022/04/18 00:22:49;;;;;;;4.60;3.40;;;;;;;4.07;47.25;101661.66;1692486;84;20931;-74
2022/04/18 00:25:34;;;;;;;3.87;2.83;;;;;;;4.02;47.30;101654.27;1682803;85;20963;-75
2022/04/18 00:28:18;;;;;;;3.95;2.33;;;;;;;3.98;47.31;101647.78;1709698;83;21551;-74
2022/04/18 00:31:03;;;;;;;2.95;2.33;;;;;;;3.91;47.35;101639.48;1684416;85;21473;-74
2022/04/18 00:33:47;;;;;;;4.85;2.12;;;;;;;3.86;47.33;101637.63;1686135;84;21578;-74
2022/04/18 00:36:32;;;;;;;4.58;2.40;;;;;;;3.76;47.34;101637.78;1685963;83;21063;-74
2022/04/18 00:39:16;;;;;;;3.90;2.20;;;;;;;3.71;47.48;101637.19;1713363;83;21034;-74
2022/04/18 00:42:01;;;;;;;3.50;2.00;;;;;;;3.65;47.43;101637.88;1681890;83;21039;-74
2022/04/18 00:44:46;;;;;;;3.83;1.95;;;;;;;3.56;47.45;101634.69;1682382;83;21093;-74
2022/04/18 00:47:30;;;;;;;2.42;1.80;;;;;;;3.47;47.51;101626.75;1683695;83;21061;-74
2022/04/18 00:50:15;;;;;;;2.65;1.80;;;;;;;3.41;47.57;101626.98;1681751;85;21535;-74
2022/04/18 00:53:02;;;;;;;4.78;2.98;;;;;;;3.36;47.63;101631.09;1681861;83;21551;-74
2022/04/18 00:55:47;;;;;;;5.20;2.12;;;;;;;3.32;47.69;101628.84;1681289;85;21516;-74
2022/04/18 00:58:33;;;;;;;6.17;2.08;;;;;;;3.32;47.71;101627.16;1682524;83;21111;-74
2022/04/18 01:01:19;;;;;;;3.35;2.05;;;;;;;3.27;47.75;101631.27;1703172;83;21035;-74
2022/04/18 01:04:05;;;;;;;1.98;1.72;;;;;;;3.24;47.76;101627.75;1674666;85;20924;-74
2022/04/18 01:06:50;;;;;;;28.35;10.38;;;;;;;3.18;47.78;101626.29;1688194;83;20918;-74
2022/04/18 01:09:34;;;;;;;8.50;3.80;;;;;;;3.10;47.85;101626.09;1685301;83;20968;-74
2022/04/18 01:12:18;;;;;;;3.72;2.20;;;;;;;3.02;47.85;101624.98;1682077;85;21095;-74
2022/04/18 01:15:03;;;;;;;2.92;1.95;;;;;;;2.97;47.93;101616.31;1681349;85;21046;-74
2022/04/18 01:17:48;;;;;;;6.60;2.87;;;;;;;2.93;47.99;101611.92;1663303;85;21313;-74
2022/04/18 01:20:35;;;;;;;14.85;6.95;;;;;;;2.91;48.01;101613.56;1681038;83;21055;-75
2022/04/18 01:23:19;;;;;;;;;;;;;;;2.85;48.07;101614.23;1710569;83;20911;-74
2022/04/18 01:29:07;;;;;;;3.90;2.40;;;;;;;2.75;48.20;101613.48;1674805;84;20924;-75
2022/04/18 01:31:51;;;;;;;8.33;3.80;;;;;;;2.68;48.23;101612.84;1684831;85;20927;-75
2022/04/18 01:34:36;;;;;;;3.12;2.25;;;;;;;2.63;48.26;101607.98;1667242;84;21397;-74
2022/04/18 01:37:20;;;;;;;2.72;1.75;;;;;;;2.60;48.27;101604.09;1688606;84;20948;-74
2022/04/18 01:40:06;;;;;;;3.00;1.65;;;;;;;2.57;48.31;101605.27;1704437;84;20963;-75
2022/04/18 01:42:50;;;;;;;;;;;;;;;2.54;48.36;101603.48;1683607;84;20917;-74
2022/04/18 01:45:35;;;;;;;3.12;1.75;;;;;;;2.52;48.92;101592.77;1704777;84;20532;-74
2022/04/18 01:48:19;;;;;;;1.85;1.50;;;;;;;2.47;48.45;101594.30;1704681;84;20920;-74
2022/04/18 01:51:04;;;;;;;2.05;1.52;;;;;;;2.41;48.42;101591.14;1693699;84;20960;-74
2022/04/18 01:53:48;;;;;;;3.50;1.67;;;;;;;2.38;48.49;101594.00;1703518;82;20940;-75
2022/04/18 01:56:32;;;;;;;2.55;1.92;;;;;;;2.33;48.52;101596.40;1704463;83;20944;-75
2022/04/18 01:59:17;;;;;;;3.30;1.90;;;;;;;2.25;48.55;101591.45;1704655;84;20920;-75
2022/04/18 02:02:02;;;;;;;2.58;1.87;;;;;;;2.13;48.56;101591.03;1704218;84;20920;-75
2022/04/18 02:04:46;;;;;;;3.20;1.65;;;;;;;2.05;48.68;101597.59;1702220;84;20920;-75
2022/04/18 02:07:30;;;;;;;4.17;2.37;;;;;;;1.97;48.72;101588.40;1702878;84;20904;-75
2022/04/18 02:10:14;;;;;;;10.20;2.00;;;;;;;1.90;48.74;101589.87;1699211;84;20952;-74
2022/04/18 02:12:59;;;;;;;4.83;1.57;;;;;;;1.85;48.77;101591.39;1704606;82;21445;-74
2022/04/18 02:15:44;;;;;;;5.25;1.98;;;;;;;1.79;48.85;101579.70;1698744;84;20929;-74
2022/04/18 02:18:28;;;;;;;3.33;1.80;;;;;;;1.78;48.87;101583.47;1682709;84;20991;-74
2022/04/18 02:21:12;;;;;;;3.20;2.27;;;;;;;1.76;48.95;101581.27;1689932;83;20938;-74
2022/04/18 02:23:57;;;;;;;1.95;1.42;;;;;;;1.73;48.96;101570.97;1701215;84;20920;-74
2022/04/18 02:26:41;;;;;;;1.65;1.55;;;;;;;1.69;48.96;101575.50;1699889;84;20944;-74
2022/04/18 02:29:25;;;;;;;1.70;1.50;;;;;;;1.65;49.02;101571.56;1680961;84;20952;-74
2022/04/18 02:35:13;;;;;;;3.55;1.72;;;;;;;1.55;49.09;101566.11;1704550;83;21397;-74
2022/04/18 02:37:58;;;;;;;2.10;1.62;;;;;;;1.47;49.13;101562.02;1667888;85;20929;-74
2022/04/18 02:40:42;;;;;;;2.60;1.50;;;;;;;1.44;49.19;101560.63;1662050;85;20898;-74
2022/04/18 02:43:26;;;;;;;3.10;1.32;;;;;;;1.43;49.22;101559.30;1660256;85;20925;-74
2022/04/18 02:46:11;;;;;;;3.72;1.62;;;;;;;1.37;49.25;101561.63;1694488;83;21574;-75
2022/04/18 02:48:55;;;;;;;2.42;1.67;;;;;;;1.28;49.34;101559.20;1675908;85;21084;-75
2022/04/18 02:51:40;;;;;;;5.80;1.72;;;;;;;1.23;49.45;101563.67;1675460;85;21651;-75
2022/04/18 02:54:25;;;;;;;2.45;1.70;;;;;;;1.16;49.50;101560.42;1675773;83;21064;-75
2022/04/18 02:57:13;;;;;;;2.47;2.00;;;;;;;1.18;49.60;101557.53;1695836;84;20962;-75
2022/04/18 02:59:57;;;;;;;2.50;1.80;;;;;;;1.12;49.54;101556.90;1683671;84;21538;-74
2022/04/18 03:02:42;;;;;;;2.77;1.85;;;;;;;1.09;49.64;101552.09;1672620;85;20965;-75
2022/04/18 03:05:26;;;;;;;4.30;2.02;;;;;;;1.06;49.63;101551.98;1677158;84;20918;-74
2022/04/18 03:08:10;;;;;;;2.27;1.67;;;;;;;0.99;49.68;101559.42;1686850;84;20914;-74
2022/04/18 03:11:03;;;;;;;3.35;1.90;;;;;;;0.92;49.76;101553.62;1661005;85;20949;-75
2022/04/18 03:13:47;;;;;;;3.05;1.55;;;;;;;0.88;49.79;101556.00;1678860;84;20985;-74
2022/04/18 03:16:32;;;;;;;2.65;1.65;;;;;;;0.82;49.85;101551.54;1668843;84;20936;-74
2022/04/18 03:19:17;;;;;;;2.15;1.90;;;;;;;0.81;49.90;101544.72;1707008;84;20907;-74
2022/04/18 03:22:01;;;;;;;3.20;1.90;;;;;;;0.81;49.98;101542.58;1679991;83;20906;-74
2022/04/18 03:24:46;;;;;;;2.22;1.60;;;;;;;0.78;50.03;101539.50;1667528;85;20902;-74
2022/04/18 03:27:31;;;;;;;5.33;2.10;;;;;;;0.69;50.00;101537.01;1678381;85;21509;-74
2022/04/18 03:30:15;;;;;;;4.42;1.98;;;;;;;0.63;50.11;101535.09;1699706;84;20915;-74
2022/04/18 03:32:59;;;;;;;4.95;2.05;;;;;;;0.57;50.13;101548.84;1704566;84;21657;-74
2022/04/18 03:41:50;;;;;;;5.10;1.70;;;;;;;0.53;50.46;101537.68;1659092;85;20938;-74
2022/04/18 03:44:36;;;;;;;2.12;1.70;;;;;;;0.55;50.41;101536.06;1678390;84;20898;-74
2022/04/18 03:47:20;;;;;;;;;;;;;;;0.50;50.39;101536.32;1680672;85;20949;-74
2022/04/18 03:50:07;;;;;;;2.35;1.62;;;;;;;0.44;50.92;101539.02;1677490;85;20108;-74
2022/04/18 03:52:51;;;;;;;1.98;1.65;;;;;;;0.42;50.64;101537.69;1677396;83;21530;-74
2022/04/18 03:55:35;;;;;;;4.05;1.80;;;;;;;0.45;50.79;101531.86;1662899;84;21105;-74
2022/04/18 03:58:20;;;;;;;2.58;1.98;;;;;;;0.44;50.72;101532.66;1676062;84;21101;-75
2022/04/18 04:01:04;;;;;;;2.02;1.50;;;;;;;0.42;50.84;101530.47;1656754;85;21053;-75
2022/04/18 04:03:50;;;;;;;2.40;1.80;;;;;;;0.36;50.85;101527.27;1676554;84;21088;-75
2022/04/18 04:06:34;;;;;;;2.77;1.92;;;;;;;0.35;50.89;101531.02;1671863;84;21071;-74
2022/04/18 04:09:19;;;;;;;3.00;1.77;;;;;;;0.32;50.95;101526.28;1676469;85;21131;-76
2022/04/18 04:12:05;;;;;;;4.70;1.75;;;;;;;0.31;51.00;101530.91;1676069;85;21493;-75
2022/04/18 04:14:55;;;;;;;5.87;2.17;;;;;;;0.27;51.05;101531.98;1690764;84;26931;-75
2022/04/18 04:17:40;;;;;;;4.42;2.10;;;;;;;0.26;51.25;101534.94;1678316;84;20905;-75
2022/04/18 04:20:25;;;;;;;3.52;2.40;;;;;;;0.30;51.33;101532.98;1678414;85;20930;-75
2022/04/18 04:23:09;;;;;;;4.08;2.47;;;;;;;0.33;51.38;101534.38;1674214;85;20967;-75
2022/04/18 04:25:53;;;;;;;6.03;2.22;;;;;;;0.34;51.38;101527.61;1692181;84;20922;-75
2022/04/18 04:28:38;;;;;;;4.83;2.30;;;;;;;0.36;51.51;101523.45;1674158;85;20918;-75
2022/04/18 04:31:22;;;;;;;5.37;2.40;;;;;;;0.44;51.54;101529.72;1679176;85;20949;-75
2022/04/18 04:34:06;;;;;;;2.85;2.00;;;;;;;0.50;51.59;101524.87;1678932;85;21418;-74
2022/04/18 04:36:51;;;;;;;2.62;1.90;;;;;;;0.57;51.62;101527.22;1677576;84;20934;-75
2022/04/18 04:39:35;;;;;;;3.98;2.00;;;;;;;0.62;51.74;101530.81;1685381;82;20909;-75
2022/04/18 04:42:20;;;;;;;2.72;2.12;;;;;;;0.68;51.82;101526.36;1681692;85;20921;-75
2022/04/18 04:45:05;;;;;;;4.12;2.62;;;;;;;0.79;51.91;101524.70;1681197;84;20905;-75
2022/04/18 04:47:50;;;;;;;2.70;2.08;;;;;;;0.91;51.98;101527.70;1684894;84;20963;-75
2022/04/18 04:50:35;;;;;;;3.58;2.70;;;;;;;0.99;52.06;101522.50;1677954;83;20936;-77
2022/04/18 04:53:19;;;;;;;3.53;2.77;;;;;;;1.07;52.11;101524.43;1677900;85;21723;-77
2022/04/18 04:56:04;;;;;;;4.90;2.50;;;;;;;1.15;52.21;101526.85;1682774;84;21831;-77
2022/04/18 04:58:49;;;;;;;3.58;2.80;;;;;;;1.22;52.29;101527.55;1680515;84;20917;-77
2022/04/18 05:01:34;;;;;;;3.60;2.60;;;;;;;1.33;52.36;101524.57;1683863;84;20901;-77
2022/04/18 05:04:18;;;;;;;3.47;2.58;;;;;;;1.54;52.53;101519.38;1664661;85;20939;-77
2022/04/18 05:07:03;;;;;;;4.10;3.10;;;;;;;1.90;52.74;101518.88;1683526;84;20909;-77
2022/04/18 05:09:47;;;;;;;5.92;2.60;;;;;;;2.40;52.75;101512.84;1683730;85;20950;-77
2022/04/18 05:12:32;;;;;;;3.62;3.12;;;;;;;3.06;52.98;101513.53;1671415;85;20902;-76
2022/04/18 05:15:17;;;;;;;3.97;2.50;;;;;;;3.80;53.14;101518.09;1684136;85;21865;-76
2022/04/18 05:18:01;;;;;;;3.58;2.45;;;;;;;4.49;53.22;101512.95;1684252;81;20941;-77
2022/04/18 05:20:46;;;;;;;5.05;4.50;;;;;;;5.22;53.30;101515.77;1681206;84;20961;-75
2022/04/18 05:23:30;;;;;;;3.92;2.77;;;;;;;5.92;53.30;101519.67;1684009;85;20954;-75
2022/04/18 05:26:15;;;;;;;5.33;3.08;;;;;;;6.57;53.34;101516.00;1691554;83;126801;-75
2022/04/18 05:28:59;;;;;;;3.58;3.27;;;;;;;7.15;53.42;101521.91;1706331;83;21431;-75
2022/04/18 05:31:43;;;;;;;3.00;2.70;;;;;;;7.63;53.51;101515.16;1713730;83;20973;-75
2022/04/18 05:34:28;;;;;;;3.72;3.15;;;;;;;8.16;53.55;101519.05;1707490;83;22089;-75
2022/04/18 05:37:12;;;;;;;53.95;27.15;;;;;;;8.62;53.48;101521.56;1706097;83;21628;-75
2022/04/18 05:39:57;;;;;;;12.33;8.25;;;;;;;9.00;53.34;101523.05;1689631;83;21534;-75
2022/04/18 05:42:42;;;;;;;6.53;4.83;;;;;;;9.29;53.48;101525.76;1689641;83;21455;-75
2022/04/18 05:45:28;;;;;;;3.90;3.50;;;;;;;9.52;53.45;101521.94;1695313;83;21377;-79
2022/04/18 05:48:12;;;;;;;5.53;3.20;;;;;;;9.66;53.40;101517.67;1702039;84;20966;-79
2022/04/18 05:50:57;;;;;;;3.67;3.12;;;;;;;9.81;53.22;101512.97;1697105;83;21059;-80
2022/04/18 05:53:42;;;;;;;3.22;2.92;;;;;;;9.91;53.17;101515.97;1693122;83;21125;-80
2022/04/18 05:56:27;;;;;;;7.00;3.17;;;;;;;10.01;53.05;101516.84;1698122;84;21026;-79
2022/04/18 05:59:11;;;;;;;4.65;3.08;;;;;;;10.05;52.93;101515.98;1694660;84;21075;-79
2022/04/18 06:01:56;;;;;;;4.75;3.10;;;;;;;10.04;52.77;101516.41;1704980;84;21709;-79
2022/04/18 06:04:40;;;;;;;4.55;3.65;;;;;;;9.96;52.74;101516.83;1703848;84;21077;-79
2022/04/18 06:07:24;;;;;;;8.15;4.30;;;;;;;10.01;52.81;101522.01;1704714;83;21089;-79
2022/04/18 06:10:10;;;;;;;3.50;2.83;;;;;;;10.18;52.68;101521.59;1693225;83;21101;-79
2022/04/18 06:12:55;;;;;;;5.37;3.30;;;;;;;10.30;52.61;101517.75;1702345;84;21049;-79
2022/04/18 06:15:39;;;;;;;4.75;3.42;;;;;;;10.36;52.48;101516.88;1694466;83;21081;-78
2022/04/18 06:18:25;;;;;;;3.08;2.77;;;;;;;10.57;52.58;101519.41;1694264;84;21038;-78
2022/04/18 06:21:11;;;;;;;5.60;4.08;;;;;;;10.82;52.42;101521.53;1701637;83;21410;-78
2022/04/18 06:23:55;;;;;;;4.53;3.23;;;;;;;10.94;52.32;101514.56;1705461;83;21503;-78
2022/04/18 06:26:40;;;;;;;6.05;4.17;;;;;;;11.02;52.10;101521.01;1692081;83;21598;-78
2022/04/18 06:29:24;;;;;;;4.40;3.20;;;;;;;11.03;51.95;101521.44;1694462;83;21088;-78
2022/04/18 06:32:09;;;;;;;4.83;3.45;;;;;;;11.04;51.95;101512.80;1702007;84;21113;-78
2022/04/18 06:34:54;;;;;;;11.57;3.25;;;;;;;11.09;51.80;101521.84;1704834;84;21109;-78
2022/04/18 06:37:38;;;;;;;4.15;3.52;;;;;;;11.19;51.91;101514.48;1704647;84;21046;-78
2022/04/18 06:40:23;;;;;;;4.95;4.00;;;;;;;11.38;51.71;101518.71;1705789;83;21042;-79
2022/04/18 06:43:07;;;;;;;6.42;3.27;;;;;;;11.47;51.64;101513.89;1705492;84;21535;-79
2022/04/18 06:45:52;;;;;;;50.55;24.50;;;;;;;11.66;51.67;101513.36;1705188;84;21582;-78
2022/04/18 06:48:37;;;;;;;18.07;11.05;;;;;;;11.84;51.54;101513.27;1702124;82;291917;-78
2022/04/18 06:51:22;;;;;;;20.48;12.35;;;;;;;11.91;51.40;101513.66;1711609;82;20990;-79
2022/04/18 06:54:07;;;;;;;7.95;6.40;;;;;;;11.99;51.22;101509.69;1662977;85;21065;-80
2022/04/18 06:57:01;;;;;;;3.95;3.22;;;;;;;12.05;51.18;101508.34;1657589;85;21038;-78
2022/04/18 06:59:46;;;;;;;6.42;4.90;;;;;;;12.14;51.16;101511.72;1653790;86;21097;-80
2022/04/18 07:02:30;;;;;;;4.58;3.17;;;;;;;12.30;51.10;101516.34;1690378;83;21108;-79
2022/04/18 07:05:15;;;;;;;5.00;3.75;;;;;;;12.38;51.01;101514.55;1686509;83;21542;-77
2022/04/18 07:08:00;;;;;;;3.72;2.98;;;;;;;12.53;51.06;101506.59;1695374;84;21057;-80
2022/04/18 07:10:44;;;;;;;4.00;3.17;;;;;;;12.73;50.96;101510.28;1706030;84;21162;-78
2022/04/18 07:13:29;;;;;;;3.55;3.25;;;;;;;12.75;50.59;101507.68;1705656;84;21043;-80
2022/04/18 07:16:13;;;;;;;5.42;3.58;;;;;;;12.70;50.67;101505.56;1699321;84;21046;-80
2022/04/18 07:18:58;;;;;;;4.47;3.47;;;;;;;12.87;50.61;101501.06;1706027;84;20974;-80
2022/04/18 07:21:43;;;;;;;5.03;3.90;;;;;;;13.14;50.71;101504.59;1706226;84;21033;-80
2022/04/18 07:24:27;;;;;;;4.95;3.80;;;;;;;13.61;51.00;101510.91;1705945;84;21110;-79
2022/04/18 07:27:12;;;;;;;4.40;3.60;;;;;;;14.31;51.07;101511.55;1698139;84;21522;-81
2022/04/18 07:29:56;;;;;;;6.45;3.92;;;;;;;15.02;50.33;101508.06;1705144;84;21082;-81
2022/04/18 07:32:43;;;;;;;4.20;3.33;;;;;;;15.34;49.06;101511.28;1704967;84;21704;-80
2022/04/18 07:35:27;;;;;;;3.62;3.33;;;;;;;15.20;48.88;101512.42;1705901;84;21530;-80
2022/04/18 07:41:27;;;;;;;5.03;4.25;;;;;;;14.38;48.62;101508.81;1700181;83;21641;-80
2022/04/18 07:44:11;;;;;;;6.00;5.47;;;;;;;13.90;48.64;101512.66;1711963;83;21069;-79
2022/04/18 07:46:57;;;;;;;4.80;3.98;;;;;;;13.55;48.65;101509.27;1712373;83;21113;-79
2022/04/18 07:49:41;;;;;;;4.47;3.67;;;;;;;13.47;48.63;101503.78;1713414;83;21523;-79
2022/04/18 07:52:26;;;;;;;4.70;4.15;;;;;;;13.42;48.52;101502.98;1708847;83;21033;-79
2022/04/18 07:55:11;;;;;;;3.80;3.37;;;;;;;13.23;48.19;101504.52;1702013;83;21014;-80
2022/04/18 07:57:55;;;;;;;4.08;3.72;;;;;;;13.19;48.36;101499.38;1702195;83;21050;-80
2022/04/18 08:00:40;;;;;;;3.42;3.12;;;;;;;13.25;48.14;101505.36;1712718;83;21100;-80
2022/04/18 08:03:25;;;;;;;4.72;3.47;;;;;;;13.27;47.95;101506.64;1707571;83;21077;-80
2022/04/18 08:06:09;;;;;;;4.12;3.50;;;;;;;13.42;47.91;101497.79;1707676;83;21038;-79
2022/04/18 08:08:54;;;;;;;3.58;3.27;;;;;;;13.42;47.56;101506.44;1706577;83;21105;-79
2022/04/18 08:11:39;;;;;;;4.12;3.30;;;;;;;13.20;47.58;101499.36;1700399;83;21526;-79
2022/04/18 08:14:23;;;;;;;3.70;3.05;;;;;;;13.07;47.47;101502.95;1712375;83;21085;-79
2022/04/18 08:17:08;;;;;;;3.60;3.25;;;;;;;12.91;47.03;101499.70;1707839;82;20986;-78
2022/04/18 08:19:53;;;;;;;4.00;3.62;;;;;;;12.69;46.71;101494.77;1714558;83;20892;-78
2022/04/18 08:22:38;;;;;;;3.52;3.22;;;;;;;12.50;46.89;101489.77;1712809;83;20915;-78
2022/04/18 08:25:22;;;;;;;4.62;3.98;;;;;;;12.91;46.55;101482.84;1706350;83;20988;-79
2022/04/18 08:28:07;;;;;;;3.83;3.45;;;;;;;13.67;46.32;101487.87;1714631;83;21539;-78
2022/04/18 08:30:54;;;;;;;3.50;3.20;;;;;;;14.23;45.83;101477.41;1714522;83;20906;-79
2022/04/18 08:33:39;;;;;;;4.30;3.47;;;;;;;14.51;45.23;101476.95;1714892;83;20947;-78
2022/04/18 08:36:23;;;;;;;4.25;3.58;;;;;;;14.53;45.16;101477.79;1714651;83;20934;-78
2022/04/18 08:39:08;;;;;;;5.05;4.40;;;;;;;14.40;45.14;101473.21;1707705;83;21866;-80
2022/04/18 08:41:55;;;;;;;11.45;8.00;;;;;;;14.14;45.13;101481.91;1707138;83;20958;-79
2022/04/18 08:44:40;;;;;;;5.45;3.72;;;;;;;13.85;45.53;101473.30;1711657;82;21045;-78
2022/04/18 08:53:32;;;;;;;4.45;3.72;;;;;;;13.56;45.66;101469.41;1702525;82;21565;-79
2022/04/18 08:56:17;;;;;;;3.85;3.35;;;;;;;13.55;45.69;101469.42;1696900;83;21073;-78
2022/04/18 08:59:02;;;;;;;3.72;3.30;;;;;;;13.54;45.58;101478.09;1709822;83;20993;-78
2022/04/18 09:01:50;;;;;;;4.22;3.45;;;;;;;13.33;45.36;101461.55;1710015;83;21660;-78
2022/04/18 09:04:36;;;;;;;4.75;3.80;;;;;;;13.17;45.15;101472.13;1707893;83;20986;-79
2022/04/18 09:07:20;;;;;;;3.52;2.72;;;;;;;12.96;44.96;101472.84;1705014;83;21101;-79
2022/04/18 09:10:06;;;;;;;6.08;3.33;;;;;;;12.69;44.94;101467.08;1709974;82;21013;-78
2022/04/18 09:12:51;;;;;;;3.27;2.83;;;;;;;12.49;44.78;101461.23;1712629;83;21109;-78
2022/04/18 09:15:43;;;;;;;3.55;2.67;;;;;;;12.27;44.42;101454.14;1704255;83;21057;-78
2022/04/18 09:18:29;;;;;;;4.47;2.95;;;;;;;12.02;44.51;101447.45;1700895;83;21053;-79
2022/04/18 09:21:13;;;;;;;4.55;3.20;;;;;;;11.96;44.37;101454.02;1713894;83;21471;-79
2022/04/18 09:23:58;;;;;;;4.03;2.92;;;;;;;11.88;44.27;101445.00;1704053;83;21109;-80
2022/04/18 09:26:42;;;;;;;5.10;3.08;;;;;;;11.77;44.14;101448.11;1706286;82;21109;-78
2022/04/18 09:29:31;;;;;;;3.22;2.80;;;;;;;11.64;43.92;101436.94;1703465;83;21128;-79
2022/04/18 09:32:21;;;;;;;4.20;2.77;;;;;;;11.55;43.79;101449.52;1712299;83;21412;-78
2022/04/18 09:35:07;;;;;;;3.90;3.27;;;;;;;11.48;43.79;101437.48;1706301;83;21625;-78
2022/04/18 09:37:53;;;;;;;3.25;2.95;;;;;;;11.43;43.60;101437.11;1703298;83;20950;-78
2022/04/18 09:40:38;;;;;;;3.67;3.37;;;;;;;11.38;43.64;101431.11;1704665;83;21046;-79
2022/04/18 09:43:23;;;;;;;2.05;1.90;;;;;;;11.40;43.47;101434.11;1693055;83;21065;-79
2022/04/18 09:46:09;;;;;;;3.60;2.80;;;;;;;11.41;43.47;101433.24;1702447;83;21514;-79
2022/04/18 09:49:02;;;;;;;2.33;2.12;;;;;;;11.38;43.19;101432.40;1676757;83;21168;-78
2022/04/18 09:51:46;;;;;;;3.87;2.35;;;;;;;11.33;43.20;101427.25;1711114;83;21510;-78
2022/04/18 09:54:32;;;;;;;5.08;2.72;;;;;;;11.36;43.05;101419.89;1704967;83;20954;-79
2022/04/18 09:57:23;;;;;;;4.00;2.58;;;;;;;11.34;42.37;101413.86;1716744;82;20958;-79
2022/04/18 10:00:10;;;;;;;2.72;2.02;;;;;;;11.31;42.82;101426.39;1688278;83;20931;-80
2022/04/18 10:02:57;;;;;;;2.85;2.35;;;;;;;11.29;42.89;101415.19;1709114;83;20918;-79
2022/04/18 10:05:42;;;;;;;3.08;2.22;;;;;;;11.27;42.62;101405.27;1713979;83;20951;-79
2022/04/18 10:08:28;;;;;;;2.22;2.02;;;;;;;11.16;42.53;101404.04;1697987;83;21387;-79
2022/04/18 10:11:13;;;;;;;2.52;1.90;;;;;;;11.17;42.69;101400.59;1706594;83;20951;-79
2022/04/18 10:13:57;;;;;;;2.67;1.77;;;;;;;11.23;42.39;101400.55;1700198;83;20985;-79
2022/04/18 10:16:42;;;;;;;3.87;1.77;;;;;;;11.17;42.33;101391.52;1699497;83;21035;-79
2022/04/18 10:20:03;;;;;;;2.72;1.82;;;;;;;11.15;42.30;101382.05;1700625;83;21121;-79
2022/04/18 10:23:17;;;;;;;1.67;1.57;;;;;;;11.17;42.23;101387.64;1702062;83;21597;-79
2022/04/18 10:26:51;;;;;;;2.37;2.12;;;;;;;11.22;42.14;101384.59;1703206;83;21081;-79
2022/04/18 10:29:44;;;;;;;2.33;1.98;;;;;;;11.13;41.67;101382.05;1706418;83;21100;-79
2022/04/18 10:32:30;;;;;;;3.12;2.35;;;;;;;11.18;41.53;101381.59;1703286;83;20938;-78
2022/04/18 10:35:15;;;;;;;2.42;2.15;;;;;;;11.22;41.68;101375.97;1701389;83;20998;-80
2022/04/18 10:38:03;;;;;;;2.87;2.30;;;;;;;11.30;41.63;101375.48;1707400;83;21097;-80
2022/04/18 10:40:47;;;;;;;4.35;2.45;;;;;;;11.29;41.71;101367.29;1706924;83;20930;-79
2022/04/18 10:44:07;;;;;;;5.05;2.92;;;;;;;11.36;41.59;101374.58;1708930;83;20998;-80
2022/04/18 10:46:57;;;;;;;3.42;2.47;;;;;;;11.37;41.54;101371.98;1708046;83;21384;-79
2022/04/18 10:49:42;;;;;;;4.03;2.22;;;;;;;11.47;41.57;101366.27;1702290;83;20910;-79
2022/04/18 10:52:28;;;;;;;6.58;2.75;;;;;;;11.51;40.91;101372.70;1703840;82;22594;-79
2022/04/18 10:55:20;;;;;;;2.92;2.20;;;;;;;11.42;41.21;101361.59;1699900;83;21280;-78
2022/04/18 10:58:18;;;;;;;3.55;2.90;;;;;;;11.34;41.36;101359.49;1709968;83;20973;-78
2022/04/18 11:01:07;;;;;;;3.70;3.15;;;;;;;11.37;41.43;101352.56;1683611;83;21004;-79
2022/04/18 11:03:58;;;;;;;3.22;2.92;;;;;;;11.48;41.33;101353.74;1710887;83;21114;-80
2022/04/18 11:06:45;;;;;;;4.67;2.50;;;;;;;11.54;41.30;101349.38;1710642;83;22241;-79
2022/04/18 11:09:34;;;;;;;2.62;2.40;;;;;;;11.60;41.31;101360.98;1707416;83;21050;-80
2022/04/18 11:12:21;;;;;;;3.12;2.83;;;;;;;11.69;41.35;101349.69;1689722;83;21041;-80
2022/04/18 11:15:07;;;;;;;7.22;2.95;;;;;;;11.80;41.18;101341.84;1702994;83;21022;-79
2022/04/18 11:17:51;;;;;;;3.10;2.80;;;;;;;11.83;41.04;101339.23;1715696;82;20954;-79
2022/04/18 11:20:37;;;;;;;4.03;3.00;;;;;;;11.82;41.08;101348.73;1706965;82;20950;-79
2022/04/18 11:23:25;;;;;;;3.50;3.20;;;;;;;11.74;40.93;101333.66;1707767;83;20942;-79
2022/04/18 11:26:09;;;;;;;4.47;3.20;;;;;;;11.74;41.02;101321.14;1706586;82;21455;-79
2022/04/18 11:28:55;;;;;;;4.90;2.92;;;;;;;11.82;41.15;101328.00;1710874;83;21005;-79
2022/04/18 11:31:40;;;;;;;3.42;3.12;;;;;;;11.81;41.03;101315.06;1702102;83;21375;-79
2022/04/18 11:34:29;;;;;;;4.87;2.95;;;;;;;11.82;40.86;101325.84;1711936;83;20975;-79
2022/04/18 11:37:26;;;;;;;4.20;2.95;;;;;;;11.74;40.68;101311.64;1707711;83;20954;-79
2022/04/18 11:40:17;;;;;;;4.15;3.62;;;;;;;11.75;40.87;101312.50;1704871;83;21012;-79
2022/04/18 11:43:01;;;;;;;3.80;2.77;;;;;;;11.77;40.75;101309.05;1704591;83;21081;-79
2022/04/18 11:45:46;;;;;;;3.27;2.75;;;;;;;11.74;40.75;101304.30;1705877;83;21107;-80
2022/04/18 11:48:30;;;;;;;4.65;2.87;;;;;;;11.76;40.86;101298.67;1700030;83;21058;-79
2022/04/18 11:51:20;;;;;;;3.20;2.90;;;;;;;11.80;40.86;101290.88;1686431;83;21077;-79
2022/04/18 11:54:05;;;;;;;3.60;3.30;;;;;;;11.92;40.88;101288.17;1711228;82;20981;-79
2022/04/18 11:57:03;;;;;;;4.87;3.75;;;;;;;11.99;40.77;101285.48;1698343;83;21058;-79
2022/04/18 11:59:48;;;;;;;3.87;3.05;;;;;;;12.03;40.64;101294.50;1702453;83;21485;-79
2022/04/18 12:08:47;;;;;;;2.83;2.52;;;;;;;11.92;40.60;101277.80;1702848;83;27316;-78
2022/04/18 12:11:36;;;;;;;3.87;3.27;;;;;;;11.93;40.62;101272.18;1701699;83;21121;-80
2022/04/18 12:14:21;;;;;;;5.05;3.65;;;;;;;11.96;40.55;101265.63;1691636;83;21093;-79
2022/04/18 12:17:08;;;;;;;3.80;2.87;;;;;;;12.00;40.44;101266.45;1708310;83;21031;-79
2022/04/18 12:19:53;;;;;;;3.30;2.47;;;;;;;12.02;40.47;101251.75;1708197;83;21053;-79
2022/04/18 12:22:38;;;;;;;2.92;2.65;;;;;;;12.13;40.28;101254.64;1706187;83;21014;-79
2022/04/18 12:25:26;;;;;;;3.00;2.70;;;;;;;12.18;40.36;101258.47;1704941;83;21643;-78
2022/04/18 12:28:13;;;;;;;5.92;2.85;;;;;;;12.19;40.36;101246.78;1702021;83;21476;-78
2022/04/18 12:30:57;;;;;;;4.37;3.05;;;;;;;12.27;40.46;101236.31;1701275;83;21042;-78
2022/04/18 12:33:50;;;;;;;4.33;3.60;;;;;;;12.33;40.28;101237.53;1694490;83;21540;-78
2022/04/18 12:36:36;;;;;;;4.28;3.15;;;;;;;12.35;40.15;101246.59;1689406;83;38580;-79
2022/04/18 12:39:21;;;;;;;4.65;3.42;;;;;;;12.34;40.19;101234.50;1712459;83;21093;-78
2022/04/18 12:42:09;;;;;;;6.67;3.80;;;;;;;12.34;40.00;101226.72;1695986;83;21129;-78
2022/04/18 12:44:57;;;;;;;3.40;3.00;;;;;;;12.28;40.05;101224.20;1689329;83;21141;-78
2022/04/18 12:47:42;;;;;;;4.15;3.08;;;;;;;12.29;40.06;101219.00;1692102;83;21045;-78
2022/04/18 12:50:27;;;;;;;5.92;4.42;;;;;;;12.31;39.97;101221.58;1696915;83;21570;-77
2022/04/18 12:53:11;;;;;;;4.00;3.33;;;;;;;12.29;39.88;101216.84;1699083;82;21574;-77
2022/04/18 12:56:06;;;;;;;3.45;3.15;;;;;;;12.33;39.86;101208.15;1703566;83;21090;-77
2022/04/18 12:59:05;;;;;;;3.65;3.08;;;;;;;12.32;39.86;101207.29;1691086;82;21066;-77
2022/04/18 13:01:49;;;;;;;4.67;3.22;;;;;;;12.35;39.88;101201.20;1699881;83;21050;-77
2022/04/18 13:04:34;;;;;;;3.60;3.30;;;;;;;12.36;39.83;101191.25;1693520;83;21050;-77
2022/04/18 13:07:19;;;;;;;4.03;3.58;;;;;;;12.41;39.68;101197.23;1684380;83;21397;-77
2022/04/18 13:10:06;;;;;;;4.17;3.67;;;;;;;12.34;39.69;101192.56;1698698;83;21180;-77
2022/04/18 13:13:01;;;;;;;3.92;3.47;;;;;;;12.42;39.68;101192.02;1700593;82;21406;-77
2022/04/18 13:15:48;;;;;;;4.50;3.33;;;;;;;12.36;39.54;101180.88;1695615;83;21097;-78
2022/04/18 13:18:37;;;;;;;5.37;3.45;;;;;;;12.31;39.55;101182.23;1701158;83;21200;-78
2022/04/18 13:21:21;;;;;;;5.55;2.90;;;;;;;12.31;39.60;101180.94;1698908;83;21094;-78
2022/04/18 13:24:07;;;;;;;3.95;3.25;;;;;;;12.36;39.57;101186.06;1701342;80;21569;-77